createdAt,value
2018-05-21T00:00:46.840Z,44.70
2018-05-21T00:03:20.942Z,46.03
2018-05-21T00:05:54.950Z,46.87
2018-05-21T00:08:28.800Z,44.27
2018-05-21T00:11:03.213Z,41.03
2018-05-21T00:13:38.064Z,40.57
2018-05-21T00:16:12.470Z,39.57
2018-05-21T00:18:46.587Z,41.47
2018-05-21T00:21:21.583Z,48.53
2018-05-21T00:23:55.388Z,43.10
2018-05-21T00:26:30.014Z,39.77
2018-05-21T00:29:04.790Z,37.47
2018-05-21T00:31:38.784Z,31.23
2018-05-21T00:34:14.463Z,35.23
2018-05-21T00:36:48.569Z,33.23
2018-05-21T00:39:22.902Z,28.90
2018-05-21T00:41:57.056Z,31.27
2018-05-21T00:44:31.166Z,23.43
2018-05-21T00:47:06.101Z,22.73
2018-05-21T00:49:40.130Z,25.80
2018-05-21T00:52:14.207Z,24.17
2018-05-21T00:55:02.572Z,25.07
2018-05-21T00:57:39.452Z,21.10
2018-05-21T01:00:13.780Z,22.33
2018-05-21T01:02:50.086Z,19.33
2018-05-21T01:05:25.312Z,19.23
2018-05-21T01:07:59.608Z,18.10
2018-05-21T01:10:35.244Z,23.67
2018-05-21T01:13:10.436Z,21.90
2018-05-21T01:15:45.309Z,19.33
2018-05-21T01:18:19.762Z,16.47
2018-05-21T01:20:55.172Z,14.33
2018-05-21T01:23:29.263Z,14.90
2018-05-21T01:26:03.414Z,13.13
2018-05-21T01:28:38.382Z,15.07
2018-05-21T01:31:12.309Z,12.50
2018-05-21T01:33:46.950Z,12.10
2018-05-21T01:36:21.961Z,14.97
2018-05-21T01:38:56.190Z,10.77
2018-05-21T01:41:30.343Z,12.30
2018-05-21T01:44:04.691Z,10.13
2018-05-21T01:46:39.137Z,12.40
2018-05-21T01:49:14.030Z,9.97
2018-05-21T01:51:48.415Z,10.17
2018-05-21T01:54:22.568Z,13.97
2018-05-21T01:56:56.567Z,11.40
2018-05-21T01:59:31.659Z,13.10
2018-05-21T02:02:05.923Z,12.60
2018-05-21T02:04:39.877Z,10.10
2018-05-21T02:07:14.959Z,12.27
2018-05-21T02:09:49.299Z,11.07
2018-05-21T02:12:24.073Z,11.17
2018-05-21T02:14:58.139Z,11.30
2018-05-21T02:17:32.344Z,10.67
2018-05-21T02:20:06.559Z,14.37
2018-05-21T02:22:40.670Z,9.80
2018-05-21T02:25:15.898Z,13.00
2018-05-21T02:27:50.931Z,12.73
2018-05-21T02:30:25.208Z,15.83
2018-05-21T02:32:59.499Z,10.33
2018-05-21T02:35:33.682Z,15.40
2018-05-21T02:38:08.020Z,11.33
2018-05-21T02:40:42.624Z,8.37
2018-05-21T02:43:16.977Z,10.20
2018-05-21T02:45:51.087Z,13.20
2018-05-21T02:48:25.287Z,10.90
2018-05-21T02:50:59.825Z,11.60
2018-05-21T02:53:35.313Z,12.70
2018-05-21T02:56:10.525Z,8.93
2018-05-21T02:58:45.647Z,10.03
2018-05-21T03:01:19.896Z,7.33
2018-05-21T03:03:54.795Z,10.63
2018-05-21T03:06:28.935Z,7.93
2018-05-21T03:09:03.546Z,8.53
2018-05-21T03:11:39.135Z,14.27
2018-05-21T03:14:13.920Z,9.43
2018-05-21T03:16:48.786Z,9.27
2018-05-21T03:19:22.753Z,12.17
2018-05-21T03:21:56.617Z,9.33
2018-05-21T03:24:31.576Z,10.07
2018-05-21T03:27:05.408Z,8.50
2018-05-21T03:29:39.287Z,8.30
2018-05-21T03:32:13.128Z,8.33
2018-05-21T03:34:48.227Z,8.50
2018-05-21T03:37:22.476Z,7.43
2018-05-21T03:39:57.537Z,7.20
2018-05-21T03:42:32.399Z,8.47
2018-05-21T03:45:13.934Z,9.37
2018-05-21T03:47:47.782Z,9.47
2018-05-21T03:50:21.777Z,9.87
2018-05-21T03:52:59.749Z,8.30
2018-05-21T03:55:33.723Z,7.37
2018-05-21T04:01:22.110Z,6.80
2018-05-21T04:03:56.550Z,6.70
2018-05-21T04:06:31.377Z,7.23
2018-05-21T04:09:05.534Z,8.30
2018-05-21T04:11:40.425Z,8.77
2018-05-21T04:14:15.459Z,7.87
2018-05-21T04:16:51.462Z,9.53
2018-05-21T04:19:25.579Z,7.43
2018-05-21T04:22:00.616Z,7.67
2018-05-21T04:24:35.481Z,7.33
2018-05-21T04:27:09.622Z,7.53
2018-05-21T04:29:43.519Z,6.80
2018-05-21T04:32:18.350Z,5.50
2018-05-21T04:34:52.437Z,5.90
2018-05-21T04:37:27.488Z,5.77
2018-05-21T04:40:01.653Z,8.93
2018-05-21T04:42:35.753Z,5.10
2018-05-21T04:45:10.762Z,4.83
2018-05-21T04:47:46.360Z,8.73
2018-05-21T04:50:21.208Z,6.40
2018-05-21T04:52:55.359Z,6.93
2018-05-21T04:55:29.471Z,5.13
2018-05-21T04:58:03.470Z,10.60
2018-05-21T05:00:37.453Z,6.23
2018-05-21T05:03:12.740Z,5.67
2018-05-21T05:05:46.899Z,5.07
2018-05-21T05:08:22.244Z,5.80
2018-05-21T05:10:57.789Z,5.97
2018-05-21T05:13:32.110Z,9.10
2018-05-21T05:16:06.227Z,9.00
2018-05-21T05:18:40.584Z,5.30
2018-05-21T05:21:14.597Z,7.13
2018-05-21T05:23:49.123Z,6.20
2018-05-21T05:26:23.373Z,5.60
2018-05-21T05:29:01.510Z,5.73
2018-05-21T05:31:36.437Z,6.27
2018-05-21T05:34:11.371Z,4.60
2018-05-21T05:36:46.105Z,6.93
2018-05-21T05:39:21.285Z,5.20
2018-05-21T05:41:56.586Z,8.07
2018-05-21T05:44:37.558Z,7.70
2018-05-21T05:47:11.607Z,5.13
2018-05-21T05:49:46.612Z,7.83
2018-05-21T05:52:21.272Z,4.77
2018-05-21T05:54:55.412Z,7.27
2018-05-21T05:57:29.392Z,9.00
2018-05-21T06:00:03.371Z,4.80
2018-05-21T06:02:37.820Z,5.93
2018-05-21T06:05:12.773Z,9.47
2018-05-21T06:07:46.984Z,6.70
2018-05-21T06:10:20.879Z,4.47
2018-05-21T06:12:55.666Z,5.73
2018-05-21T06:15:29.677Z,5.30
2018-05-21T06:18:03.993Z,4.97
2018-05-21T06:20:37.845Z,7.83
2018-05-21T06:23:12.568Z,6.80
2018-05-21T06:25:47.096Z,4.73
2018-05-21T06:28:21.121Z,4.40
2018-05-21T06:30:54.960Z,4.87
2018-05-21T06:33:28.871Z,4.33
2018-05-21T06:36:02.774Z,4.93
2018-05-21T06:38:36.498Z,6.77
2018-05-21T06:41:10.351Z,5.77
2018-05-21T06:43:44.199Z,4.53
2018-05-21T06:46:18.104Z,7.83
2018-05-21T06:48:51.919Z,5.37
2018-05-21T06:51:25.867Z,5.87
2018-05-21T06:53:59.798Z,4.77
2018-05-21T06:56:34.236Z,7.17
2018-05-21T06:59:08.717Z,3.40
2018-05-21T07:01:42.953Z,3.97
2018-05-21T07:04:16.905Z,6.00
2018-05-21T07:06:50.855Z,6.47
2018-05-21T07:09:24.765Z,4.90
2018-05-21T07:11:58.801Z,5.40
2018-05-21T07:14:33.309Z,6.33
2018-05-21T07:17:07.244Z,4.87
2018-05-21T07:19:41.835Z,4.43
2018-05-21T07:22:16.435Z,4.57
2018-05-21T07:24:50.473Z,5.70
2018-05-21T07:27:24.224Z,6.40
2018-05-21T07:29:58.015Z,5.20
2018-05-21T07:32:31.972Z,5.03
2018-05-21T07:35:05.899Z,5.27
2018-05-21T07:37:34.884Z,4.00
2018-05-21T07:40:03.170Z,5.10
2018-05-21T07:42:31.408Z,7.93
2018-05-21T07:44:59.594Z,3.77
2018-05-21T07:47:27.836Z,4.47
2018-05-21T07:49:56.068Z,5.43
2018-05-21T07:52:25.061Z,5.00
2018-05-21T07:54:53.438Z,5.10
2018-05-21T07:57:22.458Z,5.97
2018-05-21T07:59:50.748Z,5.10
2018-05-21T08:02:19.064Z,4.13
2018-05-21T08:04:48.061Z,3.70
2018-05-21T08:07:17.077Z,6.13
2018-05-21T08:09:45.324Z,4.70
2018-05-21T08:12:14.770Z,7.50
2018-05-21T08:14:43.166Z,5.90
2018-05-21T08:17:11.517Z,3.70
2018-05-21T08:19:39.879Z,5.90
2018-05-21T08:22:09.053Z,3.60
2018-05-21T08:24:37.223Z,5.67
2018-05-21T08:27:05.490Z,4.53
2018-05-21T08:29:33.726Z,8.00
2018-05-21T08:32:02.598Z,3.27
2018-05-21T08:34:30.877Z,4.03
2018-05-21T08:36:59.065Z,4.37
2018-05-21T08:39:27.270Z,4.03
2018-05-21T08:41:55.437Z,7.13
2018-05-21T08:44:23.614Z,5.03
2018-05-21T08:46:51.840Z,6.63
2018-05-21T08:49:20.083Z,3.17
2018-05-21T08:51:48.389Z,5.70
2018-05-21T08:54:16.597Z,3.57
2018-05-21T08:56:46.329Z,5.23
2018-05-21T08:59:16.317Z,4.33
2018-05-21T09:01:44.502Z,4.90
2018-05-21T09:04:12.693Z,5.67
2018-05-21T09:06:41.681Z,3.70
2018-05-21T09:09:09.890Z,6.43
2018-05-21T09:11:38.088Z,3.67
2018-05-21T09:14:06.457Z,4.20
2018-05-21T09:16:34.715Z,3.20
2018-05-21T09:19:02.901Z,8.17
2018-05-21T09:21:31.111Z,4.60
2018-05-21T09:24:00.201Z,4.47
2018-05-21T09:26:28.394Z,4.03
2018-05-21T09:28:57.377Z,3.37
2018-05-21T09:31:25.671Z,3.80
2018-05-21T09:33:53.878Z,4.93
2018-05-21T09:36:22.066Z,4.27
2018-05-21T09:38:50.327Z,3.67
2018-05-21T09:41:18.539Z,5.80
2018-05-21T09:43:46.722Z,2.47
2018-05-21T09:46:14.928Z,2.73
2018-05-21T09:48:43.929Z,6.27
2018-05-21T09:51:12.181Z,3.10
2018-05-21T09:53:40.389Z,4.30
2018-05-21T09:56:09.060Z,4.00
2018-05-21T09:58:37.547Z,6.80
2018-05-21T10:01:05.773Z,4.87
2018-05-21T10:03:34.825Z,3.40
2018-05-21T10:06:03.029Z,9.67
2018-05-21T10:08:31.297Z,5.60
2018-05-21T10:10:59.589Z,3.87
2018-05-21T10:13:27.773Z,7.67
2018-05-21T10:15:56.798Z,5.57
2018-05-21T10:18:24.982Z,4.63
2018-05-21T10:20:53.153Z,5.20
2018-05-21T10:23:21.399Z,3.80
2018-05-21T10:25:49.626Z,7.53
2018-05-21T10:28:17.877Z,7.27
2018-05-21T10:30:46.125Z,4.87
2018-05-21T10:33:14.317Z,5.63
2018-05-21T10:35:42.503Z,3.50
2018-05-21T10:38:10.768Z,3.50
2018-05-21T10:40:38.938Z,4.27
2018-05-21T10:43:07.122Z,3.53
2018-05-21T10:45:35.323Z,4.67
2018-05-21T10:48:03.500Z,3.77
2018-05-21T10:50:31.686Z,8.37
2018-05-21T10:53:00.681Z,3.60
2018-05-21T10:55:29.661Z,2.30
2018-05-21T10:57:57.858Z,4.47
2018-05-21T11:00:26.040Z,3.17
2018-05-21T11:02:54.316Z,2.47
2018-05-21T11:05:22.487Z,4.80
2018-05-21T11:07:50.709Z,3.63
2018-05-21T11:10:18.942Z,4.17
2018-05-21T11:12:47.168Z,2.30
2018-05-21T11:15:15.413Z,4.83
2018-05-21T11:17:43.635Z,6.00
2018-05-21T11:20:12.715Z,3.07
2018-05-21T11:22:41.772Z,5.80
2018-05-21T11:25:09.953Z,4.97
2018-05-21T11:27:38.186Z,3.33
2018-05-21T11:30:06.429Z,5.23
2018-05-21T11:32:35.197Z,2.50
2018-05-21T11:35:03.401Z,3.03
2018-05-21T11:37:32.414Z,4.07
2018-05-21T11:40:01.450Z,3.83
2018-05-21T11:42:29.697Z,4.03
2018-05-21T11:44:58.662Z,2.50
2018-05-21T11:47:27.613Z,8.40
2018-05-21T11:49:55.854Z,2.23
2018-05-21T11:52:24.040Z,5.57
2018-05-21T11:54:52.229Z,5.13
2018-05-21T11:57:20.435Z,2.37
2018-05-21T11:59:49.403Z,6.30
2018-05-21T12:02:17.640Z,2.00
2018-05-21T12:04:45.846Z,6.67
2018-05-21T12:07:14.051Z,5.30
2018-05-21T12:09:43.068Z,2.40
2018-05-21T12:12:11.316Z,4.43
2018-05-21T12:14:39.527Z,5.93
2018-05-21T12:17:07.754Z,4.17
2018-05-21T12:19:35.979Z,2.40
2018-05-21T12:22:04.187Z,2.80
2018-05-21T12:24:32.366Z,3.37
2018-05-21T12:27:00.598Z,2.63
2018-05-21T12:29:28.821Z,3.03
2018-05-21T12:31:57.825Z,4.23
2018-05-21T12:34:26.761Z,3.27
2018-05-21T12:36:54.961Z,3.50
2018-05-21T12:39:23.210Z,3.73
2018-05-21T12:41:51.417Z,2.77
2018-05-21T12:44:19.689Z,2.57
2018-05-21T12:46:47.992Z,4.37
2018-05-21T12:49:16.194Z,3.13
2018-05-21T12:51:44.391Z,6.63
2018-05-21T12:54:12.579Z,4.13
2018-05-21T12:56:40.769Z,2.83
2018-05-21T12:59:08.995Z,2.33
2018-05-21T13:01:37.217Z,3.33
2018-05-21T13:04:06.207Z,3.43
2018-05-21T13:06:35.306Z,2.67
2018-05-21T13:09:04.324Z,4.53
2018-05-21T13:11:32.703Z,5.03
2018-05-21T13:14:01.633Z,3.40
2018-05-21T13:16:29.846Z,2.50
2018-05-21T13:18:58.150Z,4.23
2018-05-21T13:21:26.383Z,2.53
2018-05-21T13:23:54.574Z,6.30
2018-05-21T13:26:22.792Z,7.17
2018-05-21T13:28:51.042Z,2.80
2018-05-21T13:31:19.221Z,3.83
2018-05-21T13:33:47.400Z,4.37
2018-05-21T13:36:15.595Z,2.93
2018-05-21T13:38:43.798Z,2.60
2018-05-21T13:41:12.771Z,2.53
2018-05-21T13:43:40.938Z,2.20
2018-05-21T13:46:09.151Z,3.03
2018-05-21T13:48:38.089Z,3.63
2018-05-21T13:51:06.263Z,2.53
2018-05-21T13:53:34.445Z,2.57
2018-05-21T13:56:02.614Z,3.23
2018-05-21T13:58:30.800Z,2.30
2018-05-21T14:00:58.990Z,3.47
2018-05-21T14:03:27.946Z,2.30
2018-05-21T14:05:56.160Z,2.43
2018-05-21T14:08:25.157Z,2.63
2018-05-21T14:10:54.115Z,2.10
2018-05-21T14:13:22.330Z,4.70
2018-05-21T14:15:51.262Z,4.50
2018-05-21T14:18:19.444Z,2.33
2018-05-21T14:20:47.606Z,3.17
2018-05-21T14:23:15.774Z,2.77
2018-05-21T14:25:43.957Z,4.07
2018-05-21T14:28:12.214Z,2.30
2018-05-21T14:30:40.931Z,2.30
2018-05-21T14:33:09.200Z,2.20
2018-05-21T14:35:37.331Z,2.10
2018-05-21T14:38:05.530Z,2.00
2018-05-21T14:40:34.663Z,2.93
2018-05-21T14:43:04.238Z,2.33
2018-05-21T14:45:32.455Z,2.87
2018-05-21T14:48:01.412Z,3.10
2018-05-21T14:50:29.581Z,3.23
2018-05-21T14:52:57.762Z,2.70
2018-05-21T14:55:25.958Z,4.37
2018-05-21T14:57:54.942Z,3.63
2018-05-21T15:00:23.926Z,4.13
2018-05-21T15:02:52.114Z,2.50
2018-05-21T15:05:21.063Z,3.10
2018-05-21T15:07:49.271Z,4.73
2018-05-21T15:10:18.234Z,3.83
2018-05-21T15:12:46.407Z,5.07
2018-05-21T15:15:14.606Z,3.53
2018-05-21T15:17:44.417Z,5.13
2018-05-21T15:20:12.585Z,3.87
2018-05-21T15:23:26.038Z,5.82
2018-05-21T15:25:55.064Z,6.90
2018-05-21T15:28:23.428Z,6.83
2018-05-21T15:30:51.711Z,5.03
2018-05-21T15:33:19.964Z,10.03
2018-05-21T15:35:48.362Z,5.83
2018-05-21T15:38:17.479Z,6.90
2018-05-21T15:40:45.733Z,4.60
2018-05-21T15:43:14.085Z,4.07
2018-05-21T15:45:42.232Z,3.87
2018-05-21T15:48:11.355Z,7.30
2018-05-21T15:50:40.428Z,6.67
2018-05-21T15:53:09.357Z,6.17
2018-05-21T15:55:37.554Z,7.17
2018-05-21T15:58:05.763Z,5.93
2018-05-21T16:00:34.070Z,8.17
2018-05-21T16:03:06.073Z,6.10
2018-05-21T16:05:34.290Z,5.20
2018-05-21T16:08:03.283Z,3.67
2018-05-21T16:10:32.287Z,4.13
2018-05-21T16:13:00.546Z,5.33
2018-05-21T16:15:29.517Z,3.80
2018-05-21T16:17:57.936Z,7.47
2018-05-21T16:20:26.015Z,7.37
2018-05-21T16:22:58.462Z,3.83
2018-05-21T16:25:26.686Z,7.97
2018-05-21T16:27:54.993Z,4.20
2018-05-21T16:30:24.545Z,3.80
2018-05-21T16:32:52.799Z,4.87
2018-05-21T16:35:21.005Z,7.00
2018-05-21T16:37:50.658Z,6.23
2018-05-21T16:40:22.150Z,5.70
2018-05-21T16:42:50.487Z,7.20
2018-05-21T16:45:18.850Z,10.47
2018-05-21T16:47:47.359Z,5.40
2018-05-21T16:50:15.478Z,4.47
2018-05-21T16:52:43.732Z,10.40
2018-05-21T16:55:11.962Z,5.80
2018-05-21T16:57:40.971Z,8.83
2018-05-21T17:00:09.583Z,9.23
2018-05-21T17:02:38.550Z,4.70
2018-05-21T17:05:07.817Z,5.00
2018-05-21T17:07:37.336Z,4.93
2018-05-21T17:10:06.414Z,4.70
2018-05-21T17:12:37.398Z,8.50
2018-05-21T17:15:05.683Z,4.40
2018-05-21T17:17:34.073Z,5.83
2018-05-21T17:20:02.382Z,5.73
2018-05-21T17:22:30.615Z,5.50
2018-05-21T17:24:58.993Z,7.20
2018-05-21T17:27:32.616Z,4.27
2018-05-21T17:30:01.105Z,7.03
2018-05-21T17:32:35.493Z,5.03
2018-05-21T17:35:04.868Z,4.03
2018-05-21T17:37:41.129Z,4.77
2018-05-21T17:40:10.256Z,10.00
2018-05-21T17:42:38.585Z,5.87
2018-05-21T17:45:07.286Z,9.43
2018-05-21T17:47:41.867Z,5.50
2018-05-21T17:50:10.487Z,6.00
2018-05-21T17:52:43.393Z,6.00
2018-05-21T17:55:17.520Z,5.77
2018-05-21T17:57:46.749Z,5.87
2018-05-21T18:00:15.194Z,7.33
2018-05-21T18:02:44.827Z,5.20
2018-05-21T18:05:20.085Z,6.43
2018-05-21T18:07:50.165Z,5.40
2018-05-21T18:10:18.417Z,4.77
2018-05-21T18:12:47.501Z,4.10
2018-05-21T18:15:15.846Z,6.93
2018-05-21T18:17:44.889Z,4.60
2018-05-21T18:20:13.173Z,8.30
2018-05-21T18:22:41.438Z,3.70
2018-05-21T18:25:09.668Z,6.10
2018-05-21T18:27:42.887Z,5.57
2018-05-21T18:30:12.085Z,4.33
2018-05-21T18:32:41.014Z,6.00
2018-05-21T18:35:09.249Z,7.13
2018-05-21T18:37:41.422Z,6.47
2018-05-21T18:40:09.660Z,5.00
2018-05-21T18:42:41.894Z,8.80
2018-05-21T18:45:15.363Z,4.60
2018-05-21T18:47:44.946Z,6.33
2018-05-21T18:50:22.189Z,3.93
2018-05-21T18:52:50.593Z,6.40
2018-05-21T18:55:19.683Z,3.60
2018-05-21T18:57:47.997Z,5.40
2018-05-21T19:00:21.486Z,6.57
2018-05-21T19:02:51.722Z,3.97
2018-05-21T19:05:20.431Z,6.93
2018-05-21T19:07:55.129Z,7.70
2018-05-21T19:10:29.081Z,7.33
2018-05-21T19:13:00.865Z,6.63
2018-05-21T19:15:29.664Z,7.03
2018-05-21T19:17:58.027Z,4.57
2018-05-21T19:20:32.284Z,4.80
2018-05-21T19:23:01.310Z,6.27
2018-05-21T19:25:29.742Z,5.57
2018-05-21T19:28:02.506Z,5.50
2018-05-21T19:30:30.786Z,4.20
2018-05-21T19:33:04.028Z,5.70
2018-05-21T19:35:32.417Z,5.07
2018-05-21T19:38:02.356Z,6.53
2018-05-21T19:40:30.715Z,3.73
2018-05-21T19:42:59.726Z,5.03
2018-05-21T19:45:32.278Z,4.93
2018-05-21T19:48:01.441Z,5.20
2018-05-21T19:50:29.749Z,4.03
2018-05-21T19:52:58.730Z,8.20
2018-05-21T19:55:31.664Z,3.50
2018-05-21T19:57:59.984Z,3.77
2018-05-21T20:00:29.958Z,4.63
2018-05-21T20:02:59.166Z,4.67
2018-05-21T20:05:27.599Z,4.80
2018-05-21T20:07:56.744Z,5.73
2018-05-21T20:10:25.742Z,6.20
2018-05-21T20:12:54.086Z,6.07
2018-05-21T20:15:22.339Z,7.07
2018-05-21T20:17:51.594Z,5.77
2018-05-21T20:20:32.359Z,6.50
2018-05-21T20:23:00.727Z,4.20
2018-05-21T20:25:29.943Z,4.53
2018-05-21T20:27:59.328Z,6.07
2018-05-21T20:30:29.642Z,5.30
2018-05-21T20:32:58.959Z,4.03
2018-05-21T20:35:28.864Z,6.17
2018-05-21T20:38:01.276Z,5.83
2018-05-21T20:40:30.311Z,9.27
2018-05-21T20:43:02.393Z,3.90
2018-05-21T20:45:30.666Z,4.73
2018-05-21T20:47:59.046Z,6.13
2018-05-21T20:50:27.371Z,5.73
2018-05-21T20:52:58.591Z,8.53
2018-05-21T20:55:29.301Z,6.80
2018-05-21T20:57:59.711Z,4.10
2018-05-21T21:00:36.983Z,7.03
2018-05-21T21:03:06.266Z,4.13
2018-05-21T21:05:34.493Z,6.17
2018-05-21T21:08:03.772Z,7.70
2018-05-21T21:10:41.125Z,7.90
2018-05-21T21:13:14.085Z,4.17
2018-05-21T21:15:46.931Z,5.03
2018-05-21T21:18:15.220Z,5.23
2018-05-21T21:20:43.516Z,4.47
2018-05-21T21:23:12.545Z,4.00
2018-05-21T21:25:41.722Z,5.53
2018-05-21T21:28:10.355Z,10.40
2018-05-21T21:30:41.275Z,4.53
2018-05-21T21:33:10.581Z,5.60
2018-05-21T21:35:38.819Z,5.93
2018-05-21T21:38:07.923Z,5.03
2018-05-21T21:40:37.073Z,3.73
2018-05-21T21:43:05.368Z,7.00
2018-05-21T21:45:34.465Z,5.73
2018-05-21T21:48:03.511Z,4.47
2018-05-21T21:50:31.731Z,4.07
2018-05-21T21:53:01.729Z,4.50
2018-05-21T21:55:30.013Z,3.90
2018-05-21T21:57:58.315Z,7.40
2018-05-21T22:00:27.525Z,4.63
2018-05-21T22:02:55.935Z,5.27
2018-05-21T22:05:25.093Z,4.87
2018-05-21T22:07:54.142Z,5.17
2018-05-21T22:10:23.364Z,8.50
2018-05-21T22:12:52.549Z,6.03
2018-05-21T22:15:20.839Z,6.20
2018-05-21T22:17:49.968Z,4.57
2018-05-21T22:20:18.277Z,8.00
2018-05-21T22:22:46.713Z,6.60
2018-05-21T22:25:15.960Z,4.50
2018-05-21T22:27:45.058Z,5.57
2018-05-21T22:30:15.106Z,4.37
2018-05-21T22:32:44.055Z,5.17
2018-05-21T22:35:16.843Z,7.17
2018-05-21T22:37:45.333Z,5.93
2018-05-21T22:40:18.684Z,5.57
2018-05-21T22:42:48.483Z,7.70
2018-05-21T22:45:17.600Z,5.73
2018-05-21T22:47:46.443Z,4.67
2018-05-21T22:50:16.110Z,4.93
2018-05-21T22:52:45.540Z,5.67
2018-05-21T22:55:14.048Z,3.43
2018-05-21T22:57:43.476Z,10.03
2018-05-21T23:00:11.786Z,4.30
2018-05-21T23:02:40.650Z,4.40
2018-05-21T23:05:09.019Z,7.53
2018-05-21T23:07:37.353Z,5.87
2018-05-21T23:10:08.633Z,5.43
2018-05-21T23:12:37.220Z,4.37
2018-05-21T23:15:05.662Z,5.83
2018-05-21T23:17:39.223Z,4.33
2018-05-21T23:20:08.136Z,5.33
2018-05-21T23:22:45.080Z,6.27
2018-05-21T23:25:13.590Z,6.00
2018-05-21T23:27:43.117Z,4.47
2018-05-21T23:30:12.385Z,5.80
2018-05-21T23:32:42.481Z,5.07
2018-05-21T23:35:10.793Z,6.87
2018-05-21T23:37:39.146Z,10.03
2018-05-21T23:40:07.547Z,4.87
2018-05-21T23:42:37.629Z,4.20
2018-05-21T23:45:06.116Z,6.83
2018-05-21T23:47:34.855Z,8.40
2018-05-21T23:50:08.222Z,9.60
2018-05-21T23:52:42.496Z,7.00
2018-05-21T23:55:14.114Z,4.47
2018-05-21T23:57:55.103Z,6.73
